Aviation Digital Data Service (ADDS)

Output produced by METARs form (0648 UTC 03 December 2016)
found at http://www.aviationweather.gov/adds/metars/
 
KDFW 030535Z 0306/0412 09010KT P6SM -RA OVC070 
     FM030900 08012KT P6SM -RA OVC025 
     FM031200 07014KT 5SM RA VCTS OVC012CB 
     FM031600 06012KT 2SM SHRA BR OVC005 
     FM032200 04013KT 4SM BR OVC003